Data for 06/05/2007

Time Sea-Level Adjusted Pressure Absolute Pressure Temperature Relative Humidity Dew Point   
(mb) (inHg) (mb) (inHg) (C) (F) (%) (C) (F)
00:05 1016 30 845 24.95 17.1 62.9 61 9.6 49.4
00:10 1016 30 845 24.95 17.1 62.8 60 9.3 48.8
00:15 1016 30 845 24.95 17.1 62.8 60 9.4 48.9
00:20 1016 30 845 24.95 17.1 62.7 61 9.6 49.3
00:25 1016 30 845 24.95 17 62.6 62 9.8 49.7
00:30 1016 30 845 24.95 16.9 62.4 63 10 49.9
00:35 1016 30 845 24.95 16.6 61.9 61 9.3 48.7
00:40 1016 30 845 24.95 16.8 62.3 63 9.9 49.8
00:45 1016 30 845 24.95 16.9 62.5 60 9.3 48.8
00:50 1016 30 845 24.95 16.9 62.4 61 9.3 48.8
00:55 1016 30 845 24.95 16.8 62.2 61 9.3 48.8
01:00 1016 30 845 24.95 16.7 62.1 61 9.3 48.7
01:05 1016 30 845 24.95 16.6 61.9 61 9.1 48.4
01:10 1016 30 845 24.95 16.7 62 61 9.2 48.6
01:15 1016 30 845 24.95 16.6 61.9 63 9.6 49.3
01:20 1016 30 845 24.95 16.5 61.8 64 9.9 49.8
01:25 1016 30 845 24.95 16.6 61.9 64 9.8 49.6
01:30 1015 29.97 845 24.95 16.3 61.4 64 9.5 49.1
01:35 1015 29.97 845 24.95 16.2 61.2 63 9.3 48.7
01:40 1015 29.97 845 24.95 16.2 61.2 64 9.6 49.2
01:45 1015 29.97 845 24.95 16.3 61.3 64 9.4 48.9
01:50 1015 29.97 844 24.92 16.2 61.2 64 9.5 49.1
01:55 1015 29.97 844 24.92 16.1 61 65 9.5 49.1
02:00 1015 29.97 844 24.92 16.2 61.2 64 9.5 49.1
02:05 1015 29.97 844 24.92 16.2 61.2 64 9.6 49.2
02:10 1015 29.97 844 24.92 16.1 61 65 9.5 49.1
02:15 1015 29.97 844 24.92 16 60.9 65 9.6 49.3
02:20 1015 29.97 844 24.92 16 60.7 66 9.6 49.3
02:25 1014 29.94 844 24.92 15.8 60.5 66 9.7 49.4
02:30 1014 29.94 844 24.92 15.7 60.2 68 9.9 49.8
02:35 1014 29.94 843 24.89 15.6 60 68 9.7 49.5
02:40 1014 29.94 843 24.89 15.6 60 68 9.8 49.6
02:45 1014 29.94 843 24.89 15.6 60 68 9.7 49.5
02:50 1014 29.94 844 24.92 15.7 60.2 66 9.4 48.9
02:55 1014 29.94 843 24.89 15.8 60.4 66 9.5 49
03:00 1014 29.94 843 24.89 15.9 60.6 66 9.6 49.3
03:05 1014 29.94 843 24.89 15.9 60.5 65 9.5 49
03:10 1014 29.94 843 24.89 15.8 60.5 65 9.4 48.8
03:15 1014 29.94 843 24.89 15.9 60.6 64 9.2 48.5
03:20 1014 29.94 843 24.89 15.9 60.6 65 9.3 48.7
03:25 1014 29.94 843 24.89 15.9 60.6 65 9.3 48.7
03:30 1014 29.94 843 24.89 15.9 60.6 67 9.8 49.6
03:35 1014 29.94 843 24.89 15.7 60.2 68 9.9 49.9
03:40 1014 29.94 843 24.89 15.6 60 68 9.8 49.7
03:45 1014 29.94 843 24.89 15.3 59.6 68 9.6 49.3
03:50 1014 29.94 843 24.89 15.2 59.4 70 10 49.9
03:55 1014 29.94 843 24.89 14.7 58.4 73 9.9 49.9
04:00 1014 29.94 843 24.89 14.1 57.4 75 9.8 49.6
04:05 1014 29.94 843 24.89 13.8 56.8 74 9.4 48.8
04:10 1013 29.91 843 24.89 13.6 56.6 77 9.7 49.5
04:15 1013 29.91 843 24.89 13.7 56.7 72 8.9 48
04:20 1013 29.91 843 24.89 13.4 56.2 74 8.9 47.9
04:25 1013 29.91 842 24.86 13.3 56 73 8.7 47.6
04:30 1013 29.91 842 24.86 13.2 55.7 74 8.6 47.5
04:35 1013 29.91 842 24.86 13.1 55.5 74 8.5 47.3
04:40 1013 29.91 842 24.86 12.9 55.2 74 8.5 47.2
04:45 1013 29.91 842 24.86 12.6 54.8 75 8.3 47
04:50 1013 29.91 842 24.86 12.6 54.7 74 8.1 46.5
04:55 1013 29.91 842 24.86 12.8 55 73 8.1 46.6
05:00 1013 29.91 842 24.86 12.6 54.7 75 8.4 47
05:05 1013 29.91 842 24.86 12.9 55.1 73 8.2 46.8
05:10 1013 29.91 842 24.86 12.6 54.7 74 8.2 46.7
05:15 1013 29.91 842 24.86 12.5 54.5 74 8 46.4
05:20 1013 29.91 842 24.86 12.5 54.6 74 8 46.4
05:25 1013 29.91 842 24.86 12.6 54.8 74 8.1 46.5
05:30 1013 29.91 842 24.86 12.6 54.7 72 7.8 46
05:35 1012 29.88 842 24.86 12.4 54.2 74 7.8 46.1
05:40 1012 29.88 842 24.86 12.1 53.8 74 7.6 45.7
05:45 1012 29.88 842 24.86 12.1 53.8 74 7.7 45.8
05:50 1012 29.88 842 24.86 12.3 54.2 73 7.6 45.7
05:55 1012 29.88 842 24.86 12.4 54.3 73 7.7 45.9
06:00 1012 29.88 841 24.83 12.5 54.4 73 7.7 45.9
06:05 1012 29.88 841 24.83 12.6 54.6 72 7.7 45.9
06:10 1012 29.88 841 24.83 12.5 54.5 72 7.6 45.6
06:15 1012 29.88 841 24.83 12.7 54.8 71 7.5 45.5
06:20 1012 29.88 841 24.83 12.9 55.2 70 7.6 45.6
06:25 1012 29.88 841 24.83 13 55.4 69 7.5 45.5
06:30 1012 29.88 841 24.83 13.2 55.8 68 7.5 45.5
06:35 1012 29.88 841 24.83 13.5 56.2 67 7.6 45.7
06:40 1012 29.88 841 24.83 13.5 56.3 68 7.7 45.9
06:45 1012 29.88 841 24.83 13.5 56.3 69 7.9 46.2
06:50 1012 29.88 841 24.83 13.4 56.2 69 8 46.3
06:55 1012 29.88 841 24.83 13.4 56.1 70 8 46.4
07:00 1012 29.88 841 24.83 13.5 56.3 66 7.4 45.3
07:05 1012 29.88 841 24.83 14 57.2 63 7 44.7
07:10 1012 29.88 841 24.83 14.4 58 61 7.1 44.8
07:15 1012 29.88 841 24.83 14.6 58.2 63 7.7 45.9
07:20 1011 29.85 841 24.83 14.3 57.7 66 8 46.4
07:25 1011 29.85 841 24.83 14.1 57.4 67 8.1 46.6
07:30 1011 29.85 841 24.83 14.1 57.4 67 8.2 46.7
07:35 1011 29.85 841 24.83 14.3 57.7 66 8 46.4
07:40 1011 29.85 841 24.83 14.6 58.2 65 8.2 46.7
07:45 1011 29.85 840 24.81 14.9 58.9 64 8.3 47
07:50 1011 29.85 840 24.81 15 59 69 9.4 48.8
07:55 1011 29.85 840 24.81 15.3 59.5 62 8.2 46.7
08:00 1011 29.85 840 24.81 15.4 59.7 64 8.7 47.6
08:05 1011 29.85 840 24.81 15.8 60.4 66 9.5 49.2
08:10 1011 29.85 840 24.81 16.4 61.6 60 8.7 47.6
08:15 1011 29.85 840 24.81 16.8 62.3 60 9.1 48.3
08:20 1011 29.85 840 24.81 17.1 62.8 60 9.3 48.7
08:25 1011 29.85 840 24.81 17.3 63.1 58 9 48.2
08:30 1011 29.85 840 24.81 17.6 63.6 59 9.5 49.1
08:35 1010 29.83 840 24.81 17.9 64.3 57 9.5 49.1
08:40 1010 29.83 840 24.81 18.4 65.1 55 9.2 48.5
08:45 1010 29.83 839 24.78 18.3 64.9 57 9.7 49.5
08:50 1010 29.83 839 24.78 18.6 65.6 54 9.4 48.9
08:55 1010 29.83 839 24.78 18.6 65.4 52 8.6 47.5
09:00 1010 29.83 839 24.78 19 66.2 51 8.8 47.9
09:05 1010 29.83 839 24.78 19 66.1 51 8.7 47.6
09:10 1010 29.83 839 24.78 19.7 67.5 49 8.8 47.9
09:15 1010 29.83 839 24.78 19.9 67.9 50 9.5 49.1
09:20 1010 29.83 839 24.78 20.3 68.6 51 10 50
09:25 1010 29.83 839 24.78 20.2 68.4 52 10.1 50.1
09:30 1010 29.83 839 24.78 21.1 69.9 48 9.9 49.8
09:35 1010 29.83 839 24.78 20.7 69.2 53 10.8 51.4
09:40 1009 29.8 839 24.78 19.6 67.3 54 10.3 50.5
09:45 1009 29.8 839 24.78 19.9 67.8 52 10 49.9
09:50 1009 29.8 839 24.78 20.7 69.2 49 9.7 49.5
09:55 1009 29.8 838 24.75 20.4 68.7 51 10.1 50.2
10:00 1009 29.8 838 24.75 20.9 69.7 49 9.8 49.7
10:05 1009 29.8 838 24.75 21.7 71.1 46 9.7 49.5
10:10 1009 29.8 838 24.75 22.5 72.5 46 10.5 51
10:15 1009 29.8 838 24.75 22.3 72.1 48 10.8 51.4
10:20 1009 29.8 838 24.75 22.6 72.6 46 10.5 51
10:25 1009 29.8 838 24.75 22.7 72.9 46 10.6 51
10:30 1009 29.8 838 24.75 22.1 71.7 48 10.8 51.5
10:35 1009 29.8 838 24.75 21.3 70.4 53 11.5 52.7
10:40 1009 29.8 838 24.75 20.1 68.1 56 11.2 52.1
10:45 1009 29.8 838 24.75 20.2 68.4 56 11.2 52.2
10:50 1009 29.8 838 24.75 20.3 68.5 55 11.1 52
10:55 1008 29.77 838 24.75 20.2 68.3 55 11 51.8
11:00 1008 29.77 838 24.75 20.8 69.5 53 10.9 51.6
11:05 1008 29.77 837 24.72 20.5 68.9 56 11.4 52.6
11:10 1008 29.77 837 24.72 20.2 68.4 55 11 51.8
11:15 1008 29.77 837 24.72 20.5 68.8 54 11.1 51.9
11:20 1008 29.77 837 24.72 20.4 68.7 56 11.4 52.5
11:25 1008 29.77 837 24.72 20.4 68.6 56 11.3 52.3
11:30 1008 29.77 837 24.72 20.5 69 56 11.6 52.9
11:35 1008 29.77 837 24.72 20.5 68.8 55 11.4 52.5
11:40 1008 29.77 837 24.72 20.6 69.1 55 11.4 52.5
11:45 1008 29.77 837 24.72 20.5 68.9 56 11.7 53
11:50 1008 29.77 837 24.72 20.4 68.7 56 11.5 52.8
11:55 1008 29.77 837 24.72 20.3 68.6 57 11.8 53.2
12:00 1008 29.77 837 24.72 20.1 68.1 58 11.6 53
12:05 1008 29.77 838 24.75 19.6 67.2 61 12 53.6
12:10 1009 29.8 838 24.75 18.9 66 68 12.9 55.3
12:15 1009 29.8 838 24.75 18.2 64.8 71 13 55.5
12:20 1008 29.77 838 24.75 18.1 64.5 68 12.2 53.9
12:25 1009 29.8 838 24.75 17.9 64.2 70 12.5 54.5
12:30 1008 29.77 837 24.72 18 64.4 60 10.1 50.3
12:35 1008 29.77 837 24.72 18.3 64.9 61 10.7 51.2
12:40 1008 29.77 837 24.72 18.2 64.7 53 8.5 47.4
12:45 1007 29.74 837 24.72 18.1 64.5 52 8.3 46.9
12:50 1007 29.74 836 24.69 18.3 64.9 58 10 50
12:55 1007 29.74 836 24.69 18.1 64.5 62 10.8 51.5
13:00 1007 29.74 836 24.69 18.2 64.8 61 10.6 51.1
13:05 1007 29.74 836 24.69 18.7 65.7 54 9.4 48.9
13:10 1007 29.74 836 24.69 19 66.2 55 9.9 49.8
13:15 1007 29.74 836 24.69 19.4 66.9 53 9.6 49.2
13:20 1007 29.74 836 24.69 19.9 67.8 52 10 49.9
13:25 1007 29.74 836 24.69 20 68.1 53 10.2 50.4
13:30 1007 29.74 836 24.69 19.9 67.9 52 9.9 49.9
13:35 1007 29.74 836 24.69 19.7 67.5 55 10.4 50.8
13:40 1008 29.77 837 24.72 19.6 67.3 55 10.3 50.5
13:45 1008 29.77 837 24.72 19.6 67.3 56 10.7 51.2
13:50 1008 29.77 837 24.72 20 68 54 10.4 50.8
13:55 1008 29.77 837 24.72 20.6 69 56 11.7 53.1
14:00 1008 29.77 837 24.72 20.5 69 47 9 48.2
14:05 1007 29.74 837 24.72 19.8 67.6 47 8.2 46.8
14:10 1007 29.74 837 24.72 19.3 66.8 49 8.4 47.1
14:15 1007 29.74 836 24.69 19.5 67 48 8.3 46.9
14:20 1007 29.74 836 24.69 19.6 67.2 48 8.4 47.1
14:25 1007 29.74 836 24.69 19.7 67.5 48 8.7 47.6
14:30 1007 29.74 836 24.69 20 68.1 46 8.2 46.8
14:35 1007 29.74 836 24.69 20.2 68.4 45 8.2 46.7
14:40 1007 29.74 836 24.69 20.4 68.7 44 8 46.4
14:45 1007 29.74 836 24.69 21 69.8 44 8.3 47
14:50 1006 29.71 836 24.69 20.7 69.2 44 8.3 46.9
14:55 1006 29.71 835 24.66 20.6 69.1 44 8 46.3
15:00 1006 29.71 835 24.66 21.7 71 40 7.8 46
15:05 1006 29.71 835 24.66 22.5 72.5 42 9.2 48.5
15:10 1006 29.71 835 24.66 22.1 71.8 41 8.4 47.2
15:15 1006 29.71 835 24.66 21.9 71.4 41 8.2 46.7
15:20 1006 29.71 835 24.66 22 71.5 39 7.4 45.4
15:25 1005 29.68 835 24.66 21.2 70.1 41 7.6 45.7
15:30 1005 29.68 834 24.63 21.6 70.9 40 7.6 45.7
15:35 1005 29.68 834 24.63 21.5 70.7 38 6.8 44.3
15:40 1005 29.68 834 24.63 22.1 71.7 37 7 44.6
15:45 1005 29.68 834 24.63 21.7 71 38 7.1 44.8
15:50 1005 29.68 834 24.63 21.6 71 39 7.2 45
15:55 1005 29.68 834 24.63 21.2 70.1 43 8.1 46.7
16:00 1005 29.68 834 24.63 21.3 70.4 45 9 48.2
16:05 1005 29.68 834 24.63 21.1 69.9 46 9 48.3
16:10 1005 29.68 834 24.63 21.1 69.9 46 9.1 48.3
16:15 1005 29.68 834 24.63 21 69.7 46 9.2 48.5
16:20 1005 29.68 834 24.63 20.8 69.4 49 9.7 49.5
16:25 1005 29.68 834 24.63 20.4 68.7 54 10.8 51.5
16:30 1005 29.68 834 24.63 19.6 67.2 65 12.8 55.1
16:35 1005 29.68 834 24.63 18.9 65.9 66 12.5 54.6
16:40 1005 29.68 834 24.63 18.5 65.3 70 13.1 55.5
16:45 1005 29.68 834 24.63 18.8 65.9 67 12.8 55
16:50 1005 29.68 834 24.63 18.4 65.2 61 10.8 51.5
16:55 1005 29.68 834 24.63 18 64.4 62 10.6 51.2
17:00 1005 29.68 834 24.63 17.9 64.3 67 11.9 53.4
17:05 1005 29.68 834 24.63 18 64.4 67 11.9 53.5
17:10 1005 29.68 834 24.63 18 64.4 69 12.2 54
17:15 1005 29.68 834 24.63 17.3 63.1 75 12.9 55.2
17:20 1005 29.68 834 24.63 15.9 60.6 81 12.6 54.7
17:25 1005 29.68 834 24.63 15.4 59.6 82 12.3 54.1
17:30 1006 29.71 835 24.66 15.2 59.3 83 12.3 54.1
17:35 1006 29.71 835 24.66 15.1 59.2 83 12.3 54.2
17:40 1006 29.71 835 24.66 15.1 59.3 82 12.1 53.8
17:45 1006 29.71 835 24.66 14.9 58.8 82 11.9 53.4
17:50 1006 29.71 835 24.66 14.5 58 86 12.1 53.8
17:55 1006 29.71 835 24.66 14.2 57.5 87 12.1 53.8
18:00 1006 29.71 835 24.66 14.2 57.5 88 12.2 53.9
18:05 1007 29.74 836 24.69 14.3 57.8 88 12.4 54.2
18:10 1006 29.71 835 24.66 14.4 57.8 85 11.8 53.3
18:15 1006 29.71 835 24.66 13.4 56.2 88 11.6 52.8
18:20 1006 29.71 835 24.66 13.7 56.6 82 10.7 51.2
18:25 1006 29.71 835 24.66 13.9 57.1 86 11.7 53
18:30 1006 29.71 835 24.66 14.8 58.7 84 12.1 53.8
18:35 1005 29.68 835 24.66 15 58.9 81 11.8 53.2
18:40 1006 29.71 835 24.66 14.9 58.9 83 12.1 53.8
18:45 1006 29.71 835 24.66 15 58.9 80 11.6 52.9
18:50 1005 29.68 835 24.66 14.8 58.6 81 11.5 52.7
18:55 1005 29.68 835 24.66 14.7 58.5 83 11.9 53.4
19:00 1006 29.71 835 24.66 14.7 58.5 82 11.7 53
19:05 1006 29.71 835 24.66 14.8 58.6 82 11.8 53.3
19:10 1006 29.71 835 24.66 14.5 58.2 81 11.3 52.4
19:15 1006 29.71 835 24.66 14.3 57.8 81 11.1 51.9
19:20 1006 29.71 835 24.66 14.3 57.7 81 11.1 52
19:25 1006 29.71 835 24.66 14.3 57.7 82 11.2 52.2
19:30 1006 29.71 835 24.66 14.2 57.5 84 11.5 52.8
19:35 1005 29.68 835 24.66 14.2 57.5 84 11.5 52.8
19:40 1005 29.68 835 24.66 14.1 57.3 85 11.6 52.9
19:45 1005 29.68 835 24.66 14 57.2 87 11.8 53.3
19:50 1006 29.71 835 24.66 13.9 57 86 11.7 53.1
19:55 1006 29.71 835 24.66 13.6 56.5 88 11.7 53.1
20:00 1006 29.71 835 24.66 13.4 56.1 87 11.3 52.3
20:05 1005 29.68 835 24.66 13.3 56 87 11.2 52.1
20:10 1005 29.68 834 24.63 13.4 56.1 83 10.5 51
20:15 1005 29.68 834 24.63 13.4 56.1 86 11.1 52
20:20 1005 29.68 834 24.63 13.3 55.9 84 10.7 51.3
20:25 1004 29.65 834 24.63 13.1 55.6 86 10.9 51.6
20:30 1004 29.65 834 24.63 13.2 55.7 90 11.5 52.8
20:35 1005 29.68 834 24.63 13.2 55.7 87 11.1 52
20:40 1005 29.68 834 24.63 13.1 55.7 88 11.2 52.1
20:45 1004 29.65 834 24.63 13 55.3 88 11 51.8
20:50 1004 29.65 833 24.6 12.7 54.8 89 10.9 51.6
20:55 1004 29.65 833 24.6 12.5 54.5 90 11 51.8
21:00 1004 29.65 833 24.6 12.3 54.2 90 10.8 51.4
21:05 1004 29.65 833 24.6 12.3 54.1 89 10.4 50.8
21:10 1004 29.65 833 24.6 12.3 54.2 88 10.4 50.8
21:15 1004 29.65 833 24.6 12.4 54.3 86 10.2 50.4
21:20 1004 29.65 833 24.6 12.6 54.7 86 10.3 50.5
21:25 1004 29.65 833 24.6 12.5 54.5 87 10.4 50.7
21:30 1004 29.65 833 24.6 12.5 54.4 88 10.5 51
21:35 1004 29.65 834 24.63 12.5 54.4 88 10.5 51
21:40 1004 29.65 834 24.63 12.3 54.2 91 10.9 51.6
21:45 1004 29.65 834 24.63 12 53.6 90 10.4 50.7
21:50 1004 29.65 834 24.63 11.9 53.4 90 10.3 50.6
21:55 1004 29.65 833 24.6 11.8 53.2 90 10.2 50.4
22:00 1004 29.65 833 24.6 11.8 53.2 91 10.4 50.7
22:05 1004 29.65 833 24.6 11.7 53.1 92 10.4 50.8
22:10 1004 29.65 833 24.6 11.8 53.2 91 10.4 50.7
22:15 1004 29.65 833 24.6 11.9 53.5 90 10.4 50.6
22:20 1004 29.65 833 24.6 12 53.7 89 10.3 50.5
22:25 1004 29.65 833 24.6 12.1 53.8 89 10.3 50.6
22:30 1004 29.65 833 24.6 12.1 53.9 88 10.2 50.4
22:35 1004 29.65 833 24.6 12.2 53.9 88 10.3 50.5
22:40 1004 29.65 833 24.6 12.1 53.8 89 10.3 50.6
22:45 1004 29.65 833 24.6 12.1 53.8 89 10.4 50.7
22:50 1004 29.65 833 24.6 12.1 53.8 89 10.4 50.7
22:55 1004 29.65 833 24.6 12.2 54 89 10.5 50.9
23:00 1004 29.65 833 24.6 12.2 53.9 88 10.3 50.6
23:05 1004 29.65 833 24.6 12.3 54.1 90 10.7 51.2
23:10 1004 29.65 833 24.6 12.4 54.3 90 10.8 51.5
23:15 1004 29.65 833 24.6 12.3 54.1 90 10.7 51.3
23:20 1004 29.65 833 24.6 12.2 53.9 92 10.9 51.6
23:25 1004 29.65 833 24.6 12.2 53.9 92 11 51.8
23:30 1004 29.65 833 24.6 12.1 53.8 93 11 51.8
23:35 1004 29.65 833 24.6 12 53.6 93 11 51.7
23:40 1004 29.65 833 24.6 11.9 53.5 94 11 51.8
23:45 1004 29.65 833 24.6 12 53.5 94 11 51.9
23:50 1004 29.65 833 24.6 12 53.5 94 11 51.9
23:55 1003 29.62 833 24.6 12 53.5 95 11.1 52
24:00 1003 29.62 833 24.6 12 53.5 95 11.1 52.1